sensor_id;sensor_type;location;lat;lon;timestamp;temperature;humidity
54642;DHT22;40536;53.194;5.728;2022-11-20T00:00:04;0.20;99.90
54642;DHT22;40536;53.194;5.728;2022-11-20T00:02:30;0.20;99.90
54642;DHT22;40536;53.194;5.728;2022-11-20T00:04:55;0.20;99.90
54642;DHT22;40536;53.194;5.728;2022-11-20T00:07:21;0.20;99.90
54642;DHT22;40536;53.194;5.728;2022-11-20T00:09:46;0.30;99.90
54642;DHT22;40536;53.194;5.728;2022-11-20T00:12:12;0.30;99.90
54642;DHT22;40536;53.194;5.728;2022-11-20T00:14:38;0.30;99.90
54642;DHT22;40536;53.194;5.728;2022-11-20T00:17:04;0.40;99.90
54642;DHT22;40536;53.194;5.728;2022-11-20T00:19:30;0.30;99.90
54642;DHT22;40536;53.194;5.728;2022-11-20T00:21:55;1.20;99.90
54642;DHT22;40536;53.194;5.728;2022-11-20T00:24:21;0.40;99.90
54642;DHT22;40536;53.194;5.728;2022-11-20T00:26:46;0.30;99.90
54642;DHT22;40536;53.194;5.728;2022-11-20T00:29:12;0.40;99.90
54642;DHT22;40536;53.194;5.728;2022-11-20T00:31:38;0.30;99.90
54642;DHT22;40536;53.194;5.728;2022-11-20T00:34:03;0.30;99.90
54642;DHT22;40536;53.194;5.728;2022-11-20T00:36:32;0.20;99.90
54642;DHT22;40536;53.194;5.728;2022-11-20T00:38:59;0.10;99.90
54642;DHT22;40536;53.194;5.728;2022-11-20T00:41:26;0.10;99.90
54642;DHT22;40536;53.194;5.728;2022-11-20T00:43:53;0.10;99.90
54642;DHT22;40536;53.194;5.728;2022-11-20T00:46:22;0.00;99.90
54642;DHT22;40536;53.194;5.728;2022-11-20T00:48:48;0.00;99.90
54642;DHT22;40536;53.194;5.728;2022-11-20T00:51:16;0.00;99.90
54642;DHT22;40536;53.194;5.728;2022-11-20T00:53:42;0.00;99.90
54642;DHT22;40536;53.194;5.728;2022-11-20T00:56:13;0.50;99.90
54642;DHT22;40536;53.194;5.728;2022-11-20T00:58:40;-0.10;99.90
54642;DHT22;40536;53.194;5.728;2022-11-20T01:01:15;0.80;99.90
54642;DHT22;40536;53.194;5.728;2022-11-20T01:03:43;-0.10;99.90
54642;DHT22;40536;53.194;5.728;2022-11-20T01:06:27;0.00;99.90
54642;DHT22;40536;53.194;5.728;2022-11-20T01:08:55;0.00;99.90
54642;DHT22;40536;53.194;5.728;2022-11-20T01:11:23;0.00;99.90
54642;DHT22;40536;53.194;5.728;2022-11-20T01:13:51;0.00;99.90
54642;DHT22;40536;53.194;5.728;2022-11-20T01:16:20;0.90;99.90
54642;DHT22;40536;53.194;5.728;2022-11-20T01:18:49;0.10;99.90
54642;DHT22;40536;53.194;5.728;2022-11-20T01:21:18;0.10;99.90
54642;DHT22;40536;53.194;5.728;2022-11-20T01:23:45;0.10;99.90
54642;DHT22;40536;53.194;5.728;2022-11-20T01:26:16;0.10;99.90
54642;DHT22;40536;53.194;5.728;2022-11-20T01:28:42;0.10;99.90
54642;DHT22;40536;53.194;5.728;2022-11-20T01:33:45;0.10;99.90
54642;DHT22;40536;53.194;5.728;2022-11-20T01:36:12;0.10;99.90
54642;DHT22;40536;53.194;5.728;2022-11-20T01:38:38;0.10;99.90
54642;DHT22;40536;53.194;5.728;2022-11-20T01:41:05;0.10;99.90
54642;DHT22;40536;53.194;5.728;2022-11-20T01:43:31;0.10;99.90
54642;DHT22;40536;53.194;5.728;2022-11-20T01:46:00;0.10;99.90
54642;DHT22;40536;53.194;5.728;2022-11-20T01:49:00;0.10;99.90
54642;DHT22;40536;53.194;5.728;2022-11-20T01:51:32;0.00;99.90
54642;DHT22;40536;53.194;5.728;2022-11-20T01:54:01;0.00;99.90
54642;DHT22;40536;53.194;5.728;2022-11-20T01:56:31;-0.10;99.90
54642;DHT22;40536;53.194;5.728;2022-11-20T01:58:59;-0.10;99.90
54642;DHT22;40536;53.194;5.728;2022-11-20T02:01:26;-0.10;99.90
54642;DHT22;40536;53.194;5.728;2022-11-20T02:03:52;-0.20;99.90
54642;DHT22;40536;53.194;5.728;2022-11-20T02:06:40;-0.20;99.90
54642;DHT22;40536;53.194;5.728;2022-11-20T02:09:08;-0.20;99.90
54642;DHT22;40536;53.194;5.728;2022-11-20T02:11:33;-0.20;99.90
54642;DHT22;40536;53.194;5.728;2022-11-20T02:13:59;-0.10;99.90
54642;DHT22;40536;53.194;5.728;2022-11-20T02:18:55;1.30;99.90
54642;DHT22;40536;53.194;5.728;2022-11-20T02:26:54;-0.20;99.90
54642;DHT22;40536;53.194;5.728;2022-11-20T02:29:51;-0.20;99.90
54642;DHT22;40536;53.194;5.728;2022-11-20T02:32:23;-0.20;99.90
54642;DHT22;40536;53.194;5.728;2022-11-20T02:34:50;-0.20;99.90
54642;DHT22;40536;53.194;5.728;2022-11-20T02:37:15;-0.20;99.90
54642;DHT22;40536;53.194;5.728;2022-11-20T02:39:44;-0.20;99.90
54642;DHT22;40536;53.194;5.728;2022-11-20T02:42:10;-0.20;99.90
54642;DHT22;40536;53.194;5.728;2022-11-20T02:44:35;-0.20;99.90
54642;DHT22;40536;53.194;5.728;2022-11-20T02:47:01;-0.20;99.90
54642;DHT22;40536;53.194;5.728;2022-11-20T02:49:26;-0.20;99.90
54642;DHT22;40536;53.194;5.728;2022-11-20T02:51:52;-0.10;99.90
54642;DHT22;40536;53.194;5.728;2022-11-20T02:54:18;-0.10;99.90
54642;DHT22;40536;53.194;5.728;2022-11-20T02:56:43;-0.10;99.90
54642;DHT22;40536;53.194;5.728;2022-11-20T02:59:09;-0.10;99.90
54642;DHT22;40536;53.194;5.728;2022-11-20T03:01:35;-0.10;99.90
54642;DHT22;40536;53.194;5.728;2022-11-20T03:04:01;-0.10;99.90
54642;DHT22;40536;53.194;5.728;2022-11-20T03:06:27;0.00;99.90
54642;DHT22;40536;53.194;5.728;2022-11-20T03:08:53;0.00;99.90
54642;DHT22;40536;53.194;5.728;2022-11-20T03:11:19;0.00;99.90
54642;DHT22;40536;53.194;5.728;2022-11-20T03:13:44;0.10;99.90
54642;DHT22;40536;53.194;5.728;2022-11-20T03:16:15;0.00;99.90
54642;DHT22;40536;53.194;5.728;2022-11-20T03:18:41;0.00;99.90
54642;DHT22;40536;53.194;5.728;2022-11-20T03:21:08;0.00;99.90
54642;DHT22;40536;53.194;5.728;2022-11-20T03:23:34;0.10;99.90
54642;DHT22;40536;53.194;5.728;2022-11-20T03:26:09;0.10;99.90
54642;DHT22;40536;53.194;5.728;2022-11-20T03:28:35;0.00;99.90
54642;DHT22;40536;53.194;5.728;2022-11-20T03:31:12;0.00;99.90
54642;DHT22;40536;53.194;5.728;2022-11-20T03:33:39;0.10;99.90
54642;DHT22;40536;53.194;5.728;2022-11-20T03:36:08;0.00;99.90
54642;DHT22;40536;53.194;5.728;2022-11-20T03:38:34;0.00;99.90
54642;DHT22;40536;53.194;5.728;2022-11-20T03:41:06;0.00;99.90
54642;DHT22;40536;53.194;5.728;2022-11-20T03:43:32;0.00;99.90
54642;DHT22;40536;53.194;5.728;2022-11-20T03:45:58;-0.10;99.90
54642;DHT22;40536;53.194;5.728;2022-11-20T03:48:24;0.00;99.90
54642;DHT22;40536;53.194;5.728;2022-11-20T03:50:50;-0.10;99.90
54642;DHT22;40536;53.194;5.728;2022-11-20T03:53:16;-0.10;99.90
54642;DHT22;40536;53.194;5.728;2022-11-20T03:55:42;-0.20;99.90
54642;DHT22;40536;53.194;5.728;2022-11-20T03:58:08;-0.20;99.90
54642;DHT22;40536;53.194;5.728;2022-11-20T04:00:34;-0.30;99.90
54642;DHT22;40536;53.194;5.728;2022-11-20T04:03:01;-0.30;99.90
54642;DHT22;40536;53.194;5.728;2022-11-20T04:05:27;-0.40;99.90
54642;DHT22;40536;53.194;5.728;2022-11-20T04:07:53;-0.40;99.90
54642;DHT22;40536;53.194;5.728;2022-11-20T04:10:19;-0.40;99.90
54642;DHT22;40536;53.194;5.728;2022-11-20T04:12:44;-0.50;99.90
54642;DHT22;40536;53.194;5.728;2022-11-20T04:15:10;-0.60;99.90
54642;DHT22;40536;53.194;5.728;2022-11-20T04:17:36;-0.60;99.90
54642;DHT22;40536;53.194;5.728;2022-11-20T04:20:02;-0.70;99.90
54642;DHT22;40536;53.194;5.728;2022-11-20T04:22:28;-0.70;99.90
54642;DHT22;40536;53.194;5.728;2022-11-20T04:24:54;-0.70;99.90
54642;DHT22;40536;53.194;5.728;2022-11-20T04:27:19;-0.70;99.90
54642;DHT22;40536;53.194;5.728;2022-11-20T04:29:45;0.00;99.90
54642;DHT22;40536;53.194;5.728;2022-11-20T04:32:11;-0.70;99.90
54642;DHT22;40536;53.194;5.728;2022-11-20T04:34:36;-0.70;99.90
54642;DHT22;40536;53.194;5.728;2022-11-20T04:37:02;-0.70;99.90
54642;DHT22;40536;53.194;5.728;2022-11-20T04:39:27;-0.70;99.90
54642;DHT22;40536;53.194;5.728;2022-11-20T04:41:53;-0.10;99.90
54642;DHT22;40536;53.194;5.728;2022-11-20T04:44:39;-0.70;99.90
54642;DHT22;40536;53.194;5.728;2022-11-20T04:47:05;-0.70;99.90
54642;DHT22;40536;53.194;5.728;2022-11-20T04:49:30;-0.70;99.90
54642;DHT22;40536;53.194;5.728;2022-11-20T04:51:57;-0.70;99.90
54642;DHT22;40536;53.194;5.728;2022-11-20T04:54:23;-0.70;99.90
54642;DHT22;40536;53.194;5.728;2022-11-20T04:56:49;-0.80;99.90
54642;DHT22;40536;53.194;5.728;2022-11-20T04:59:14;-0.90;99.90
54642;DHT22;40536;53.194;5.728;2022-11-20T05:01:40;-0.90;99.90
54642;DHT22;40536;53.194;5.728;2022-11-20T05:04:06;-1.00;99.90
54642;DHT22;40536;53.194;5.728;2022-11-20T05:06:32;-1.10;99.90
54642;DHT22;40536;53.194;5.728;2022-11-20T05:08:58;-1.10;99.90
54642;DHT22;40536;53.194;5.728;2022-11-20T05:11:24;-1.10;99.90
54642;DHT22;40536;53.194;5.728;2022-11-20T05:13:50;-1.10;99.90
54642;DHT22;40536;53.194;5.728;2022-11-20T05:16:19;-1.10;99.90
54642;DHT22;40536;53.194;5.728;2022-11-20T05:18:45;-1.00;99.90
54642;DHT22;40536;53.194;5.728;2022-11-20T05:21:12;0.90;99.90
54642;DHT22;40536;53.194;5.728;2022-11-20T05:23:38;-1.00;99.90
54642;DHT22;40536;53.194;5.728;2022-11-20T05:26:05;-0.90;99.90
54642;DHT22;40536;53.194;5.728;2022-11-20T05:28:31;-0.90;99.90
54642;DHT22;40536;53.194;5.728;2022-11-20T05:31:05;-0.90;99.90
54642;DHT22;40536;53.194;5.728;2022-11-20T05:33:32;-0.90;99.90
54642;DHT22;40536;53.194;5.728;2022-11-20T05:36:03;-0.90;99.90
54642;DHT22;40536;53.194;5.728;2022-11-20T05:38:29;-0.90;99.90
54642;DHT22;40536;53.194;5.728;2022-11-20T05:40:54;-0.90;99.90
54642;DHT22;40536;53.194;5.728;2022-11-20T05:43:20;-1.00;99.90
54642;DHT22;40536;53.194;5.728;2022-11-20T05:45:53;-1.00;99.90
54642;DHT22;40536;53.194;5.728;2022-11-20T05:48:19;-1.00;99.90
54642;DHT22;40536;53.194;5.728;2022-11-20T05:50:45;-0.90;99.90
54642;DHT22;40536;53.194;5.728;2022-11-20T05:53:10;-0.90;99.90
54642;DHT22;40536;53.194;5.728;2022-11-20T05:55:36;-0.90;99.90
54642;DHT22;40536;53.194;5.728;2022-11-20T05:58:02;-1.00;99.90
54642;DHT22;40536;53.194;5.728;2022-11-20T06:00:27;-1.00;99.90
54642;DHT22;40536;53.194;5.728;2022-11-20T06:02:53;-1.00;99.90
54642;DHT22;40536;53.194;5.728;2022-11-20T06:05:19;-1.00;99.90
54642;DHT22;40536;53.194;5.728;2022-11-20T06:07:44;-1.00;99.90
54642;DHT22;40536;53.194;5.728;2022-11-20T06:10:10;-1.10;99.90
54642;DHT22;40536;53.194;5.728;2022-11-20T06:12:36;-1.10;99.90
54642;DHT22;40536;53.194;5.728;2022-11-20T06:15:03;-1.10;99.90
54642;DHT22;40536;53.194;5.728;2022-11-20T06:17:29;-1.10;99.90
54642;DHT22;40536;53.194;5.728;2022-11-20T06:19:55;-1.10;99.90
54642;DHT22;40536;53.194;5.728;2022-11-20T06:22:20;-1.10;99.90
54642;DHT22;40536;53.194;5.728;2022-11-20T06:24:46;-1.10;99.90
54642;DHT22;40536;53.194;5.728;2022-11-20T06:27:11;-1.20;99.90
54642;DHT22;40536;53.194;5.728;2022-11-20T06:29:37;-1.20;99.90
54642;DHT22;40536;53.194;5.728;2022-11-20T06:32:03;-1.20;99.90
54642;DHT22;40536;53.194;5.728;2022-11-20T06:34:28;-1.20;99.90
54642;DHT22;40536;53.194;5.728;2022-11-20T06:36:54;-1.30;99.90
54642;DHT22;40536;53.194;5.728;2022-11-20T06:39:20;-1.30;99.90
54642;DHT22;40536;53.194;5.728;2022-11-20T06:41:45;-1.40;99.90
54642;DHT22;40536;53.194;5.728;2022-11-20T06:44:11;-1.40;99.90
54642;DHT22;40536;53.194;5.728;2022-11-20T06:46:36;-1.40;99.90
54642;DHT22;40536;53.194;5.728;2022-11-20T06:49:02;-1.30;99.90
54642;DHT22;40536;53.194;5.728;2022-11-20T06:51:28;-1.30;99.90
54642;DHT22;40536;53.194;5.728;2022-11-20T06:53:53;-1.30;99.90
54642;DHT22;40536;53.194;5.728;2022-11-20T06:56:19;-1.30;99.90
54642;DHT22;40536;53.194;5.728;2022-11-20T06:58:45;-1.30;99.90
54642;DHT22;40536;53.194;5.728;2022-11-20T07:01:13;-1.30;99.90
54642;DHT22;40536;53.194;5.728;2022-11-20T07:03:39;-1.30;99.90
54642;DHT22;40536;53.194;5.728;2022-11-20T07:06:05;-1.30;99.90
54642;DHT22;40536;53.194;5.728;2022-11-20T07:08:31;-1.30;99.90
54642;DHT22;40536;53.194;5.728;2022-11-20T07:10:58;-1.20;99.90
54642;DHT22;40536;53.194;5.728;2022-11-20T07:13:25;-1.20;99.90
54642;DHT22;40536;53.194;5.728;2022-11-20T07:15:51;-1.20;99.90
54642;DHT22;40536;53.194;5.728;2022-11-20T07:18:17;-1.30;99.90
54642;DHT22;40536;53.194;5.728;2022-11-20T07:20:42;-1.20;99.90
54642;DHT22;40536;53.194;5.728;2022-11-20T07:23:08;-1.30;99.90
54642;DHT22;40536;53.194;5.728;2022-11-20T07:25:33;-1.30;99.90
54642;DHT22;40536;53.194;5.728;2022-11-20T07:28:00;-0.20;99.90
54642;DHT22;40536;53.194;5.728;2022-11-20T07:30:29;-1.30;99.90
54642;DHT22;40536;53.194;5.728;2022-11-20T07:32:56;-1.30;99.90
54642;DHT22;40536;53.194;5.728;2022-11-20T07:35:23;-1.20;99.90
54642;DHT22;40536;53.194;5.728;2022-11-20T07:37:49;-1.20;99.90
54642;DHT22;40536;53.194;5.728;2022-11-20T07:40:17;-1.10;99.90
54642;DHT22;40536;53.194;5.728;2022-11-20T07:42:50;-1.10;99.90
54642;DHT22;40536;53.194;5.728;2022-11-20T07:45:16;-1.00;99.90
54642;DHT22;40536;53.194;5.728;2022-11-20T07:47:42;-1.00;99.90
54642;DHT22;40536;53.194;5.728;2022-11-20T07:50:08;-1.00;99.90
54642;DHT22;40536;53.194;5.728;2022-11-20T07:52:34;-0.90;99.90
54642;DHT22;40536;53.194;5.728;2022-11-20T07:55:00;-0.90;99.90
54642;DHT22;40536;53.194;5.728;2022-11-20T07:57:25;-0.90;99.90
54642;DHT22;40536;53.194;5.728;2022-11-20T07:59:51;-0.80;99.90
54642;DHT22;40536;53.194;5.728;2022-11-20T08:02:17;-0.80;99.90
54642;DHT22;40536;53.194;5.728;2022-11-20T08:04:42;-0.80;99.90
54642;DHT22;40536;53.194;5.728;2022-11-20T08:07:08;-0.70;99.90
54642;DHT22;40536;53.194;5.728;2022-11-20T08:09:33;-0.70;99.90
54642;DHT22;40536;53.194;5.728;2022-11-20T08:11:59;-0.70;99.90
54642;DHT22;40536;53.194;5.728;2022-11-20T08:14:43;-0.70;99.90
54642;DHT22;40536;53.194;5.728;2022-11-20T08:17:09;-0.70;99.90
54642;DHT22;40536;53.194;5.728;2022-11-20T08:19:35;-0.60;99.90
54642;DHT22;40536;53.194;5.728;2022-11-20T08:22:01;-0.60;99.90
54642;DHT22;40536;53.194;5.728;2022-11-20T08:24:26;-0.50;99.90
54642;DHT22;40536;53.194;5.728;2022-11-20T08:26:52;-0.40;99.90
54642;DHT22;40536;53.194;5.728;2022-11-20T08:29:18;-0.40;99.90
54642;DHT22;40536;53.194;5.728;2022-11-20T08:31:44;-0.30;99.90
54642;DHT22;40536;53.194;5.728;2022-11-20T08:34:10;-0.30;99.90
54642;DHT22;40536;53.194;5.728;2022-11-20T08:36:36;-0.30;99.90
54642;DHT22;40536;53.194;5.728;2022-11-20T08:39:02;-0.30;99.90
54642;DHT22;40536;53.194;5.728;2022-11-20T08:41:29;-0.20;99.90
54642;DHT22;40536;53.194;5.728;2022-11-20T08:43:57;-0.20;99.90
54642;DHT22;40536;53.194;5.728;2022-11-20T08:46:25;-0.10;99.90
54642;DHT22;40536;53.194;5.728;2022-11-20T08:48:51;-0.10;99.90
54642;DHT22;40536;53.194;5.728;2022-11-20T08:51:17;-0.10;99.90
54642;DHT22;40536;53.194;5.728;2022-11-20T08:53:43;0.00;99.90
54642;DHT22;40536;53.194;5.728;2022-11-20T08:56:09;0.00;99.90
54642;DHT22;40536;53.194;5.728;2022-11-20T08:58:36;0.10;99.90
54642;DHT22;40536;53.194;5.728;2022-11-20T09:01:02;0.20;99.90
54642;DHT22;40536;53.194;5.728;2022-11-20T09:03:28;0.30;99.90
54642;DHT22;40536;53.194;5.728;2022-11-20T09:06:00;0.50;99.90
54642;DHT22;40536;53.194;5.728;2022-11-20T09:08:27;0.60;99.90
54642;DHT22;40536;53.194;5.728;2022-11-20T09:10:53;0.80;99.90
54642;DHT22;40536;53.194;5.728;2022-11-20T09:13:20;0.90;99.90
54642;DHT22;40536;53.194;5.728;2022-11-20T09:15:46;1.00;99.90
54642;DHT22;40536;53.194;5.728;2022-11-20T09:18:12;1.10;99.90
54642;DHT22;40536;53.194;5.728;2022-11-20T09:20:38;1.20;99.90
54642;DHT22;40536;53.194;5.728;2022-11-20T09:23:04;1.30;99.90
54642;DHT22;40536;53.194;5.728;2022-11-20T09:25:29;1.40;99.90
54642;DHT22;40536;53.194;5.728;2022-11-20T09:27:56;1.50;99.90
54642;DHT22;40536;53.194;5.728;2022-11-20T09:30:22;1.60;99.90
54642;DHT22;40536;53.194;5.728;2022-11-20T09:32:48;1.70;99.90
54642;DHT22;40536;53.194;5.728;2022-11-20T09:35:13;1.80;99.90
54642;DHT22;40536;53.194;5.728;2022-11-20T09:37:40;1.90;99.90
54642;DHT22;40536;53.194;5.728;2022-11-20T09:40:06;2.00;99.90
54642;DHT22;40536;53.194;5.728;2022-11-20T09:42:47;2.10;99.90
54642;DHT22;40536;53.194;5.728;2022-11-20T09:45:43;3.20;99.90
54642;DHT22;40536;53.194;5.728;2022-11-20T09:51:21;2.40;99.90
54642;DHT22;40536;53.194;5.728;2022-11-20T09:56:45;2.60;99.90
54642;DHT22;40536;53.194;5.728;2022-11-20T09:59:34;2.60;99.90
54642;DHT22;40536;53.194;5.728;2022-11-20T10:02:03;2.70;99.90
54642;DHT22;40536;53.194;5.728;2022-11-20T10:04:32;4.20;99.90
54642;DHT22;40536;53.194;5.728;2022-11-20T10:09:34;2.70;99.90
54642;DHT22;40536;53.194;5.728;2022-11-20T10:14:56;2.80;99.90
54642;DHT22;40536;53.194;5.728;2022-11-20T10:20:35;2.80;99.90
54642;DHT22;40536;53.194;5.728;2022-11-20T10:26:02;2.70;99.90
54642;DHT22;40536;53.194;5.728;2022-11-20T10:31:04;2.70;99.90
54642;DHT22;40536;53.194;5.728;2022-11-20T10:33:36;2.70;99.90
54642;DHT22;40536;53.194;5.728;2022-11-20T10:36:24;2.80;99.90
54642;DHT22;40536;53.194;5.728;2022-11-20T10:39:06;3.00;99.90
54642;DHT22;40536;53.194;5.728;2022-11-20T10:41:37;4.10;99.90
54642;DHT22;40536;53.194;5.728;2022-11-20T10:44:17;3.30;99.90
54642;DHT22;40536;53.194;5.728;2022-11-20T10:47:13;3.40;99.90
54642;DHT22;40536;53.194;5.728;2022-11-20T10:49:40;3.40;99.90
54642;DHT22;40536;53.194;5.728;2022-11-20T10:52:16;3.40;99.90
54642;DHT22;40536;53.194;5.728;2022-11-20T11:00:10;4.30;99.90
54642;DHT22;40536;53.194;5.728;2022-11-20T11:02:43;3.30;99.90
54642;DHT22;40536;53.194;5.728;2022-11-20T11:05:22;3.80;99.90
54642;DHT22;40536;53.194;5.728;2022-11-20T11:07:54;3.30;99.90
54642;DHT22;40536;53.194;5.728;2022-11-20T11:13:00;3.30;99.90
54642;DHT22;40536;53.194;5.728;2022-11-20T11:17:52;3.30;99.90
54642;DHT22;40536;53.194;5.728;2022-11-20T11:20:23;3.30;99.90
54642;DHT22;40536;53.194;5.728;2022-11-20T11:22:53;3.30;99.90
54642;DHT22;40536;53.194;5.728;2022-11-20T11:27:49;3.30;99.90
54642;DHT22;40536;53.194;5.728;2022-11-20T11:30:17;3.40;99.90
54642;DHT22;40536;53.194;5.728;2022-11-20T11:32:44;3.50;99.90
54642;DHT22;40536;53.194;5.728;2022-11-20T11:35:25;3.60;99.90
54642;DHT22;40536;53.194;5.728;2022-11-20T11:37:53;4.60;99.90
54642;DHT22;40536;53.194;5.728;2022-11-20T11:40:20;3.80;99.90
54642;DHT22;40536;53.194;5.728;2022-11-20T11:42:54;4.00;99.90
54642;DHT22;40536;53.194;5.728;2022-11-20T11:45:21;4.80;99.90
54642;DHT22;40536;53.194;5.728;2022-11-20T11:47:48;4.20;99.90
54642;DHT22;40536;53.194;5.728;2022-11-20T11:50:25;5.20;99.90
54642;DHT22;40536;53.194;5.728;2022-11-20T11:52:54;4.20;99.90
54642;DHT22;40536;53.194;5.728;2022-11-20T11:56:18;4.20;99.90
54642;DHT22;40536;53.194;5.728;2022-11-20T12:00:58;3.90;99.90
54642;DHT22;40536;53.194;5.728;2022-11-20T12:03:39;3.80;99.90
54642;DHT22;40536;53.194;5.728;2022-11-20T12:06:14;3.70;99.90
54642;DHT22;40536;53.194;5.728;2022-11-20T12:08:43;3.70;99.90
54642;DHT22;40536;53.194;5.728;2022-11-20T12:11:20;3.60;99.90
54642;DHT22;40536;53.194;5.728;2022-11-20T12:14:08;4.70;99.90
54642;DHT22;40536;53.194;5.728;2022-11-20T12:16:37;3.60;99.90
54642;DHT22;40536;53.194;5.728;2022-11-20T12:19:11;3.60;99.90
54642;DHT22;40536;53.194;5.728;2022-11-20T12:29:43;3.50;99.90
54642;DHT22;40536;53.194;5.728;2022-11-20T12:32:22;4.20;99.90
54642;DHT22;40536;53.194;5.728;2022-11-20T12:40:42;3.40;99.90
54642;DHT22;40536;53.194;5.728;2022-11-20T12:43:20;3.40;99.90
54642;DHT22;40536;53.194;5.728;2022-11-20T13:00:14;3.40;99.90
54642;DHT22;40536;53.194;5.728;2022-11-20T13:03:20;3.40;99.90
54642;DHT22;40536;53.194;5.728;2022-11-20T13:08:27;3.50;99.90
54642;DHT22;40536;53.194;5.728;2022-11-20T13:19:08;3.50;99.90
54642;DHT22;40536;53.194;5.728;2022-11-20T13:21:38;3.40;99.90
54642;DHT22;40536;53.194;5.728;2022-11-20T13:24:27;4.40;99.90
54642;DHT22;40536;53.194;5.728;2022-11-20T13:29:37;4.20;99.90
54642;DHT22;40536;53.194;5.728;2022-11-20T13:32:26;3.40;99.90
54642;DHT22;40536;53.194;5.728;2022-11-20T13:34:58;3.40;99.90
54642;DHT22;40536;53.194;5.728;2022-11-20T13:37:34;3.30;99.90
54642;DHT22;40536;53.194;5.728;2022-11-20T13:42:55;3.20;99.90
54642;DHT22;40536;53.194;5.728;2022-11-20T13:45:28;3.80;99.90
54642;DHT22;40536;53.194;5.728;2022-11-20T13:47:54;3.00;99.90
54642;DHT22;40536;53.194;5.728;2022-11-20T13:50:40;3.00;99.90
54642;DHT22;40536;53.194;5.728;2022-11-20T13:55:54;3.80;99.90
54642;DHT22;40536;53.194;5.728;2022-11-20T14:01:23;2.90;99.90
54642;DHT22;40536;53.194;5.728;2022-11-20T14:03:50;2.90;99.90
54642;DHT22;40536;53.194;5.728;2022-11-20T14:06:26;2.80;99.90
54642;DHT22;40536;53.194;5.728;2022-11-20T14:08:53;2.80;99.90
54642;DHT22;40536;53.194;5.728;2022-11-20T14:11:21;2.80;99.90
54642;DHT22;40536;53.194;5.728;2022-11-20T14:13:57;2.80;99.90
54642;DHT22;40536;53.194;5.728;2022-11-20T14:16:25;2.70;99.90
54642;DHT22;40536;53.194;5.728;2022-11-20T14:18:52;2.70;99.90
54642;DHT22;40536;53.194;5.728;2022-11-20T14:21:25;2.70;99.90
54642;DHT22;40536;53.194;5.728;2022-11-20T14:24:04;2.70;99.90
54642;DHT22;40536;53.194;5.728;2022-11-20T14:26:31;2.70;99.90
54642;DHT22;40536;53.194;5.728;2022-11-20T14:28:57;3.20;99.90
54642;DHT22;40536;53.194;5.728;2022-11-20T14:31:25;2.70;99.90
54642;DHT22;40536;53.194;5.728;2022-11-20T14:33:52;2.60;99.90
54642;DHT22;40536;53.194;5.728;2022-11-20T14:36:20;4.10;99.90
54642;DHT22;40536;53.194;5.728;2022-11-20T14:38:47;2.60;99.90
54642;DHT22;40536;53.194;5.728;2022-11-20T14:41:21;3.80;99.90
54642;DHT22;40536;53.194;5.728;2022-11-20T14:43:56;3.50;99.90
54642;DHT22;40536;53.194;5.728;2022-11-20T14:46:23;2.50;99.90
54642;DHT22;40536;53.194;5.728;2022-11-20T14:48:56;2.50;99.90
54642;DHT22;40536;53.194;5.728;2022-11-20T14:53:53;2.40;99.90
54642;DHT22;40536;53.194;5.728;2022-11-20T14:56:23;2.40;99.90
54642;DHT22;40536;53.194;5.728;2022-11-20T14:58:56;2.40;99.90
54642;DHT22;40536;53.194;5.728;2022-11-20T15:01:26;2.30;99.90
54642;DHT22;40536;53.194;5.728;2022-11-20T15:04:07;2.40;99.90
54642;DHT22;40536;53.194;5.728;2022-11-20T15:06:35;2.30;99.90
54642;DHT22;40536;53.194;5.728;2022-11-20T15:09:03;2.30;99.90
54642;DHT22;40536;53.194;5.728;2022-11-20T15:11:32;2.30;99.90
54642;DHT22;40536;53.194;5.728;2022-11-20T15:14:02;2.30;99.90
54642;DHT22;40536;53.194;5.728;2022-11-20T15:16:29;2.30;99.90
54642;DHT22;40536;53.194;5.728;2022-11-20T15:18:55;2.30;99.90
54642;DHT22;40536;53.194;5.728;2022-11-20T15:21:21;3.40;99.90
54642;DHT22;40536;53.194;5.728;2022-11-20T15:23:47;3.80;99.90
54642;DHT22;40536;53.194;5.728;2022-11-20T15:26:15;2.40;99.90
54642;DHT22;40536;53.194;5.728;2022-11-20T15:28:44;2.40;99.90
54642;DHT22;40536;53.194;5.728;2022-11-20T15:31:14;2.30;99.90
54642;DHT22;40536;53.194;5.728;2022-11-20T15:33:39;2.40;99.90
54642;DHT22;40536;53.194;5.728;2022-11-20T15:36:05;2.30;99.90
54642;DHT22;40536;53.194;5.728;2022-11-20T15:38:31;2.40;99.90
54642;DHT22;40536;53.194;5.728;2022-11-20T15:40:57;2.30;99.90
54642;DHT22;40536;53.194;5.728;2022-11-20T15:43:23;2.30;99.90
54642;DHT22;40536;53.194;5.728;2022-11-20T15:45:55;2.30;99.90
54642;DHT22;40536;53.194;5.728;2022-11-20T15:48:26;2.30;99.90
54642;DHT22;40536;53.194;5.728;2022-11-20T15:53:40;2.30;99.90
54642;DHT22;40536;53.194;5.728;2022-11-20T15:56:11;2.30;99.90
54642;DHT22;40536;53.194;5.728;2022-11-20T15:58:36;3.70;99.90
54642;DHT22;40536;53.194;5.728;2022-11-20T16:01:02;2.30;99.90
54642;DHT22;40536;53.194;5.728;2022-11-20T16:03:28;3.70;99.90
54642;DHT22;40536;53.194;5.728;2022-11-20T16:05:53;2.30;99.90
54642;DHT22;40536;53.194;5.728;2022-11-20T16:08:19;2.30;99.90
54642;DHT22;40536;53.194;5.728;2022-11-20T16:10:45;2.30;99.90
54642;DHT22;40536;53.194;5.728;2022-11-20T16:13:16;2.30;99.90
54642;DHT22;40536;53.194;5.728;2022-11-20T16:16:04;2.30;99.90
54642;DHT22;40536;53.194;5.728;2022-11-20T16:18:31;2.30;99.90
54642;DHT22;40536;53.194;5.728;2022-11-20T16:20:57;2.30;99.90
54642;DHT22;40536;53.194;5.728;2022-11-20T16:23:23;3.60;99.90
54642;DHT22;40536;53.194;5.728;2022-11-20T16:25:49;2.30;99.90
54642;DHT22;40536;53.194;5.728;2022-11-20T16:28:15;2.30;99.90
54642;DHT22;40536;53.194;5.728;2022-11-20T16:30:41;2.30;99.90
54642;DHT22;40536;53.194;5.728;2022-11-20T16:33:25;2.30;99.90
54642;DHT22;40536;53.194;5.728;2022-11-20T16:35:51;3.10;99.90
54642;DHT22;40536;53.194;5.728;2022-11-20T16:38:16;2.20;99.90
54642;DHT22;40536;53.194;5.728;2022-11-20T16:40:42;2.20;99.90
54642;DHT22;40536;53.194;5.728;2022-11-20T16:43:10;2.20;99.90
54642;DHT22;40536;53.194;5.728;2022-11-20T16:45:41;2.20;99.90
54642;DHT22;40536;53.194;5.728;2022-11-20T16:48:07;2.20;99.90
54642;DHT22;40536;53.194;5.728;2022-11-20T16:50:36;2.60;99.90
54642;DHT22;40536;53.194;5.728;2022-11-20T16:53:01;3.50;99.90
54642;DHT22;40536;53.194;5.728;2022-11-20T16:55:27;2.20;99.90
54642;DHT22;40536;53.194;5.728;2022-11-20T16:57:53;2.10;99.90
54642;DHT22;40536;53.194;5.728;2022-11-20T17:00:18;2.20;99.90
54642;DHT22;40536;53.194;5.728;2022-11-20T17:02:44;2.10;99.90
54642;DHT22;40536;53.194;5.728;2022-11-20T17:05:10;2.10;99.90
54642;DHT22;40536;53.194;5.728;2022-11-20T17:07:35;3.50;99.90
54642;DHT22;40536;53.194;5.728;2022-11-20T17:10:03;2.10;99.90
54642;DHT22;40536;53.194;5.728;2022-11-20T17:12:29;2.10;99.90
54642;DHT22;40536;53.194;5.728;2022-11-20T17:14:55;2.00;99.90
54642;DHT22;40536;53.194;5.728;2022-11-20T17:17:20;2.10;99.90
54642;DHT22;40536;53.194;5.728;2022-11-20T17:19:46;2.00;99.90
54642;DHT22;40536;53.194;5.728;2022-11-20T17:22:11;2.10;99.90
54642;DHT22;40536;53.194;5.728;2022-11-20T17:24:37;2.10;99.90
54642;DHT22;40536;53.194;5.728;2022-11-20T17:27:03;3.60;99.90
54642;DHT22;40536;53.194;5.728;2022-11-20T17:29:28;2.00;99.90